createdAt,value
2023-04-14T00:00:05.629Z,0.00
2023-04-14T00:01:05.608Z,0.00
2023-04-14T00:02:05.626Z,0.00
2023-04-14T00:03:05.704Z,0.00
2023-04-14T00:04:05.615Z,0.00
2023-04-14T00:05:05.497Z,0.00
2023-04-14T00:06:05.431Z,0.00
2023-04-14T00:07:05.431Z,0.00
2023-04-14T00:08:05.450Z,0.00
2023-04-14T00:09:05.970Z,0.00
2023-04-14T00:10:05.359Z,0.00
2023-04-14T00:11:05.230Z,0.00
2023-04-14T00:12:05.212Z,0.00
2023-04-14T00:13:05.168Z,0.00
2023-04-14T00:14:05.138Z,0.00
2023-04-14T00:15:05.089Z,0.00
2023-04-14T00:16:05.111Z,0.00
2023-04-14T00:17:05.062Z,0.00
2023-04-14T00:18:05.035Z,0.00
2023-04-14T00:19:04.952Z,0.00
2023-04-14T00:20:04.997Z,0.00
2023-04-14T00:21:04.874Z,0.00
2023-04-14T00:22:04.842Z,0.00
2023-04-14T00:23:04.830Z,0.00
2023-04-14T00:24:04.799Z,0.00
2023-04-14T00:25:04.790Z,0.00
2023-04-14T00:26:04.711Z,0.00
2023-04-14T00:27:04.676Z,0.00
2023-04-14T00:28:04.660Z,0.00
2023-04-14T00:29:04.608Z,0.00
2023-04-14T00:30:04.646Z,0.00
2023-04-14T00:31:04.593Z,0.00
2023-04-14T00:32:04.502Z,0.00
2023-04-14T00:33:04.486Z,0.00
2023-04-14T00:34:04.426Z,0.00
2023-04-14T00:35:04.396Z,0.00
2023-04-14T00:36:04.398Z,0.00
2023-04-14T00:37:04.385Z,0.00
2023-04-14T00:38:04.286Z,0.00
2023-04-14T00:39:04.254Z,0.00
2023-04-14T00:40:04.221Z,0.00
2023-04-14T00:41:04.263Z,0.00
2023-04-14T00:42:04.178Z,0.00
2023-04-14T00:43:04.140Z,0.00
2023-04-14T00:44:04.091Z,0.00
2023-04-14T00:45:04.113Z,0.00
2023-04-14T00:46:04.131Z,0.00
2023-04-14T00:47:04.081Z,0.00
2023-04-14T00:48:04.003Z,0.00
2023-04-14T00:49:04.182Z,0.00
2023-04-14T00:50:03.880Z,0.00
2023-04-14T00:51:03.831Z,0.00
2023-04-14T00:52:03.792Z,0.00
2023-04-14T00:53:03.764Z,0.00
2023-04-14T00:54:03.765Z,0.00
2023-04-14T00:55:03.698Z,0.00
2023-04-14T00:56:03.661Z,0.00
2023-04-14T00:57:03.645Z,0.00
2023-04-14T00:58:03.586Z,0.00
2023-04-14T00:59:03.624Z,0.00
2023-04-14T01:00:03.508Z,0.00
2023-04-14T01:01:03.480Z,0.00
2023-04-14T01:02:03.518Z,0.00
2023-04-14T01:03:03.578Z,0.00
2023-04-14T01:04:03.509Z,0.00
2023-04-14T01:05:03.494Z,0.00
2023-04-14T01:06:03.329Z,0.00
2023-04-14T01:07:03.268Z,0.00
2023-04-14T01:08:03.251Z,0.00
2023-04-14T01:09:03.201Z,0.00
2023-04-14T01:10:03.213Z,0.00
2023-04-14T01:11:03.224Z,0.00
2023-04-14T01:12:03.091Z,0.00
2023-04-14T01:13:03.054Z,0.00
2023-04-14T01:14:03.021Z,0.00
2023-04-14T01:15:03.091Z,0.00
2023-04-14T01:16:02.978Z,0.00
2023-04-14T01:17:02.925Z,0.00
2023-04-14T01:18:02.911Z,0.00
2023-04-14T01:19:02.943Z,0.00
2023-04-14T01:20:02.822Z,0.00
2023-04-14T01:21:02.838Z,0.00
2023-04-14T01:22:02.755Z,0.00
2023-04-14T01:23:02.699Z,0.00
2023-04-14T01:24:02.666Z,0.00
2023-04-14T01:25:02.651Z,0.00
2023-04-14T01:26:02.602Z,0.00
2023-04-14T01:27:02.616Z,0.00
2023-04-14T01:28:02.540Z,0.00
2023-04-14T01:29:02.668Z,0.00
2023-04-14T01:30:02.467Z,0.00
2023-04-14T01:31:02.435Z,0.00
2023-04-14T01:32:02.517Z,0.00
2023-04-14T01:33:02.392Z,0.00
2023-04-14T01:34:02.326Z,0.00
2023-04-14T01:35:02.289Z,0.00
2023-04-14T01:36:02.286Z,0.00
2023-04-14T01:37:02.244Z,0.00
2023-04-14T01:38:02.271Z,0.00
2023-04-14T01:39:02.303Z,0.00
2023-04-14T01:40:02.135Z,0.00
2023-04-14T01:41:02.093Z,0.00
2023-04-14T01:42:02.072Z,0.00
2023-04-14T01:43:02.051Z,0.00
2023-04-14T01:44:01.970Z,0.00
2023-04-14T01:45:01.985Z,0.00
2023-04-14T01:46:01.945Z,0.00
2023-04-14T01:47:01.863Z,0.00
2023-04-14T01:48:01.889Z,0.00
2023-04-14T01:49:02.160Z,0.00
2023-04-14T01:50:01.836Z,0.00
2023-04-14T01:51:01.770Z,0.00
2023-04-14T01:52:01.728Z,0.00
2023-04-14T01:53:01.772Z,0.00
2023-04-14T01:54:01.627Z,0.00
2023-04-14T01:55:01.665Z,0.00
2023-04-14T01:56:01.603Z,0.00
2023-04-14T01:57:01.560Z,0.00
2023-04-14T01:58:01.492Z,0.00
2023-04-14T01:59:01.790Z,0.00
2023-04-14T02:00:01.580Z,0.00
2023-04-14T02:01:01.490Z,0.00
2023-04-14T02:02:01.364Z,0.00
2023-04-14T02:03:01.404Z,0.00
2023-04-14T02:04:01.363Z,0.00
2023-04-14T02:05:01.239Z,0.00
2023-04-14T02:06:01.198Z,0.00
2023-04-14T02:07:01.216Z,0.00
2023-04-14T02:08:01.121Z,0.00
2023-04-14T02:09:01.333Z,0.00
2023-04-14T02:10:01.056Z,0.00
2023-04-14T02:11:01.030Z,0.00
2023-04-14T02:12:01.056Z,0.00
2023-04-14T02:13:01.023Z,0.00
2023-04-14T02:14:00.923Z,0.00
2023-04-14T02:15:00.892Z,0.00
2023-04-14T02:16:00.847Z,0.00
2023-04-14T02:17:00.886Z,0.00
2023-04-14T02:18:00.885Z,0.00
2023-04-14T02:19:00.950Z,0.00
2023-04-14T02:20:00.711Z,0.00
2023-04-14T02:21:00.673Z,0.00
2023-04-14T02:22:00.629Z,0.00
2023-04-14T02:23:00.674Z,0.00
2023-04-14T02:24:00.572Z,0.00
2023-04-14T02:25:00.532Z,0.00
2023-04-14T02:26:00.505Z,0.00
2023-04-14T02:27:00.463Z,0.00
2023-04-14T02:28:00.492Z,0.00
2023-04-14T02:29:00.573Z,0.00
2023-04-14T02:30:00.352Z,0.00
2023-04-14T02:31:00.341Z,0.00
2023-04-14T02:32:00.283Z,0.00
2023-04-14T02:33:00.277Z,0.00
2023-04-14T02:34:00.303Z,0.00
2023-04-14T02:35:00.177Z,0.00
2023-04-14T02:36:00.168Z,0.00
2023-04-14T02:37:00.118Z,0.00
2023-04-14T02:38:00.068Z,0.00
2023-04-14T02:39:00.400Z,0.00
2023-04-14T02:40:00.003Z,0.00
2023-04-14T02:40:59.976Z,0.00
2023-04-14T02:41:59.924Z,0.00
2023-04-14T02:42:59.899Z,0.00
2023-04-14T02:43:59.926Z,0.00
2023-04-14T02:44:59.812Z,0.00
2023-04-14T02:45:59.857Z,0.00
2023-04-14T02:46:59.755Z,0.00
2023-04-14T02:47:59.776Z,0.00
2023-04-14T02:48:59.875Z,0.00
2023-04-14T02:49:59.661Z,0.00
2023-04-14T02:50:59.692Z,0.00
2023-04-14T02:51:59.594Z,0.00
2023-04-14T02:52:59.543Z,0.00
2023-04-14T02:53:59.513Z,0.00
2023-04-14T02:54:59.470Z,0.00
2023-04-14T02:55:59.493Z,0.00
2023-04-14T02:56:59.402Z,0.00
2023-04-14T02:57:59.376Z,0.00
2023-04-14T02:58:59.612Z,0.00
2023-04-14T02:59:59.302Z,0.00
2023-04-14T03:00:59.267Z,0.00
2023-04-14T03:01:59.437Z,0.00
2023-04-14T03:02:59.327Z,0.00
2023-04-14T03:03:59.166Z,0.00
2023-04-14T03:04:59.121Z,0.00
2023-04-14T03:05:59.092Z,0.00
2023-04-14T03:06:59.059Z,0.00
2023-04-14T03:07:59.091Z,0.00
2023-04-14T03:08:59.152Z,0.00
2023-04-14T03:09:58.952Z,0.00
2023-04-14T03:10:58.910Z,0.00
2023-04-14T03:11:58.877Z,0.00
2023-04-14T03:12:58.871Z,0.00
2023-04-14T03:13:58.872Z,0.00
2023-04-14T03:14:58.783Z,0.00
2023-04-14T03:15:58.780Z,0.00
2023-04-14T03:16:58.700Z,0.00
2023-04-14T03:17:58.729Z,0.00
2023-04-14T03:18:58.696Z,0.00
2023-04-14T03:19:58.670Z,0.00
2023-04-14T03:20:58.565Z,0.00
2023-04-14T03:21:58.533Z,0.00
2023-04-14T03:22:58.500Z,0.00
2023-04-14T03:23:58.459Z,0.00
2023-04-14T03:24:58.488Z,0.00
2023-04-14T03:25:58.397Z,0.00
2023-04-14T03:26:58.380Z,0.00
2023-04-14T03:27:58.318Z,0.00
2023-04-14T03:28:58.371Z,0.00
2023-04-14T03:29:58.329Z,0.00
2023-04-14T03:30:58.309Z,0.00
2023-04-14T03:31:58.182Z,0.00
2023-04-14T03:32:58.180Z,0.00
2023-04-14T03:33:58.106Z,0.00
2023-04-14T03:34:58.088Z,0.00
2023-04-14T03:35:58.096Z,0.00
2023-04-14T03:36:58.010Z,0.00
2023-04-14T03:37:57.961Z,0.00
2023-04-14T03:38:58.201Z,0.00
2023-04-14T03:39:57.913Z,0.00
2023-04-14T03:40:57.970Z,0.00
2023-04-14T03:41:57.843Z,0.00
2023-04-14T03:42:57.798Z,0.00
2023-04-14T03:43:57.759Z,0.00
2023-04-14T03:44:57.721Z,0.00
2023-04-14T03:45:57.682Z,0.00
2023-04-14T03:46:57.813Z,4.00
2023-04-14T03:47:57.745Z,4.00
2023-04-14T03:48:57.579Z,4.00
2023-04-14T03:49:57.546Z,0.00
2023-04-14T03:50:57.507Z,4.00
2023-04-14T03:51:57.472Z,4.00
2023-04-14T03:52:57.501Z,4.00
2023-04-14T03:53:58.120Z,4.00
2023-04-14T03:54:57.373Z,8.00
2023-04-14T03:55:57.339Z,4.00
2023-04-14T03:56:57.302Z,8.00
2023-04-14T03:57:57.270Z,12.00
2023-04-14T03:58:57.307Z,12.00
2023-04-14T03:59:57.191Z,12.00
2023-04-14T04:00:57.159Z,16.00
2023-04-14T04:01:57.250Z,16.00
2023-04-14T04:02:57.260Z,20.00
2023-04-14T04:03:57.221Z,20.00
2023-04-14T04:04:57.180Z,24.00
2023-04-14T04:05:56.995Z,28.00
2023-04-14T04:06:56.949Z,32.00
2023-04-14T04:07:56.915Z,36.00
2023-04-14T04:08:56.885Z,40.00
2023-04-14T04:09:56.903Z,44.00
2023-04-14T04:10:56.818Z,48.00
2023-04-14T04:11:56.776Z,56.00
2023-04-14T04:12:56.740Z,56.00
2023-04-14T04:13:56.716Z,64.00
2023-04-14T04:14:56.670Z,72.00
2023-04-14T04:15:56.690Z,80.00
2023-04-14T04:16:56.778Z,88.00
2023-04-14T04:17:56.643Z,96.00
2023-04-14T04:18:56.544Z,108.00
2023-04-14T04:19:56.490Z,116.00
2023-04-14T04:20:56.460Z,128.00
2023-04-14T04:21:56.426Z,136.00
2023-04-14T04:22:56.481Z,144.00
2023-04-14T04:23:56.352Z,152.00
2023-04-14T04:24:56.315Z,164.00
2023-04-14T04:25:56.288Z,172.00
2023-04-14T04:26:56.266Z,176.00
2023-04-14T04:27:56.264Z,188.00
2023-04-14T04:28:56.181Z,196.00
2023-04-14T04:29:56.195Z,200.00
2023-04-14T04:30:56.113Z,212.00
2023-04-14T04:31:56.149Z,224.00
2023-04-14T04:32:56.065Z,240.00
2023-04-14T04:33:56.059Z,256.00
2023-04-14T04:34:55.971Z,268.00
2023-04-14T04:35:55.931Z,284.00
2023-04-14T04:36:55.901Z,300.00
2023-04-14T04:37:55.861Z,316.00
2023-04-14T04:38:55.840Z,336.00
2023-04-14T04:39:55.857Z,356.00
2023-04-14T04:40:55.773Z,372.00
2023-04-14T04:41:55.735Z,396.00
2023-04-14T04:42:55.697Z,412.00
2023-04-14T04:43:55.656Z,432.00
2023-04-14T04:44:55.623Z,452.00
2023-04-14T04:45:55.686Z,472.00
2023-04-14T04:46:55.563Z,492.00
2023-04-14T04:47:55.546Z,516.00
2023-04-14T04:48:55.498Z,536.00
2023-04-14T04:49:55.445Z,556.00
2023-04-14T04:50:55.416Z,572.00
2023-04-14T04:51:55.435Z,588.00
2023-04-14T04:52:55.358Z,604.00
2023-04-14T04:53:55.305Z,636.00
2023-04-14T04:54:55.270Z,672.00
2023-04-14T04:55:55.234Z,704.00
2023-04-14T04:56:55.256Z,736.00
2023-04-14T04:57:55.219Z,764.00
2023-04-14T04:58:55.125Z,792.00
2023-04-14T04:59:55.097Z,816.00
2023-04-14T05:00:55.091Z,840.00
2023-04-14T05:01:55.148Z,864.00
2023-04-14T05:02:55.129Z,896.00
2023-04-14T05:03:55.000Z,928.00
2023-04-14T05:04:54.985Z,964.00
2023-04-14T05:05:54.957Z,1008.00
2023-04-14T05:06:54.863Z,1056.00
2023-04-14T05:07:54.819Z,1104.00
2023-04-14T05:08:54.853Z,1148.00
2023-04-14T05:10:05.164Z,1188.00
2023-04-14T05:10:54.711Z,1224.00
2023-04-14T05:11:54.685Z,1252.00
2023-04-14T05:12:54.643Z,1276.00
2023-04-14T05:13:54.614Z,1296.00
2023-04-14T05:14:54.658Z,1316.00
2023-04-14T05:15:54.549Z,1328.00
2023-04-14T05:16:54.519Z,1344.00
2023-04-14T05:17:54.514Z,1352.00
2023-04-14T05:18:54.462Z,1352.00
2023-04-14T05:19:54.454Z,1348.00
2023-04-14T05:20:54.472Z,1336.00
2023-04-14T05:21:54.346Z,1324.00
2023-04-14T05:22:54.318Z,1316.00
2023-04-14T05:23:54.274Z,1312.00
2023-04-14T05:24:54.249Z,1312.00
2023-04-14T05:25:54.270Z,1316.00
2023-04-14T05:27:12.344Z,1320.00
2023-04-14T05:27:54.140Z,1324.00
2023-04-14T05:28:54.100Z,1328.00
2023-04-14T05:29:54.064Z,1344.00
2023-04-14T05:30:54.080Z,1368.00
2023-04-14T05:31:54.063Z,1392.00
2023-04-14T05:32:54.013Z,1424.00
2023-04-14T05:33:53.946Z,1456.00
2023-04-14T05:34:53.896Z,1488.00
2023-04-14T05:35:53.853Z,1516.00
2023-04-14T05:36:53.820Z,1536.00
2023-04-14T05:37:53.862Z,1552.00
2023-04-14T05:38:53.755Z,1568.00
2023-04-14T05:39:53.733Z,1588.00
2023-04-14T05:40:53.692Z,1604.00
2023-04-14T05:41:53.663Z,1616.00
2023-04-14T05:42:55.344Z,1636.00
2023-04-14T05:43:53.635Z,1672.00
2023-04-14T05:44:53.543Z,1708.00
2023-04-14T05:45:53.510Z,1756.00
2023-04-14T05:46:53.563Z,1820.00
2023-04-14T05:47:53.468Z,1892.00
2023-04-14T05:48:53.412Z,1976.00
2023-04-14T05:49:53.450Z,2052.00
2023-04-14T05:50:54.248Z,2132.00
2023-04-14T05:51:53.302Z,2212.00
2023-04-14T05:52:53.320Z,2280.00
2023-04-14T05:53:53.326Z,2332.00
2023-04-14T05:55:01.204Z,2368.00
2023-04-14T05:55:53.247Z,2396.00
2023-04-14T05:56:53.134Z,2424.00
2023-04-14T05:57:53.122Z,2452.00
2023-04-14T05:58:56.058Z,2484.00
2023-04-14T05:59:53.095Z,2512.00
2023-04-14T06:00:52.999Z,2536.00
2023-04-14T06:01:53.082Z,2564.00
2023-04-14T06:02:53.131Z,2600.00
2023-04-14T06:03:53.263Z,2636.00
2023-04-14T06:04:53.859Z,2672.00
2023-04-14T06:05:52.833Z,2700.00
2023-04-14T06:06:52.779Z,2724.00
2023-04-14T06:07:52.877Z,2744.00
2023-04-14T06:08:53.561Z,2760.00
2023-04-14T06:09:52.727Z,2788.00
2023-04-14T06:10:52.709Z,2812.00
2023-04-14T06:11:52.657Z,2832.00
2023-04-14T06:12:52.578Z,2856.00
2023-04-14T06:13:52.548Z,2876.00
2023-04-14T06:14:52.508Z,2884.00
2023-04-14T06:15:52.535Z,2900.00
2023-04-14T06:16:52.599Z,2892.00
2023-04-14T06:17:52.430Z,2908.00
2023-04-14T06:18:52.369Z,2928.00
2023-04-14T06:19:52.338Z,2960.00
2023-04-14T06:20:52.314Z,2992.00
2023-04-14T06:21:52.328Z,3008.00
2023-04-14T06:22:52.380Z,3000.00
2023-04-14T06:23:52.214Z,3012.00
2023-04-14T06:24:52.176Z,3024.00
2023-04-14T06:25:52.162Z,3004.00
2023-04-14T06:26:52.112Z,2952.00
2023-04-14T06:27:52.229Z,2896.00
2023-04-14T06:28:52.050Z,2852.00
2023-04-14T06:29:52.003Z,2800.00
2023-04-14T06:30:51.976Z,2656.00
2023-04-14T06:31:51.941Z,2464.00
2023-04-14T06:32:51.970Z,2404.00
2023-04-14T06:33:51.876Z,2648.00
2023-04-14T06:34:53.390Z,2956.00
2023-04-14T06:35:51.788Z,3120.00
2023-04-14T06:36:51.759Z,3212.00
2023-04-14T06:37:51.736Z,3356.00
2023-04-14T06:38:52.971Z,3464.00
2023-04-14T06:39:51.699Z,3540.00
2023-04-14T06:40:53.276Z,3504.00
2023-04-14T06:41:51.590Z,3408.00
2023-04-14T06:42:51.600Z,3284.00
2023-04-14T06:43:51.666Z,3232.00
2023-04-14T06:44:51.481Z,3168.00
2023-04-14T06:45:51.479Z,3040.00
2023-04-14T06:46:51.423Z,2920.00
2023-04-14T06:47:51.467Z,2856.00
2023-04-14T06:48:51.413Z,2948.00
2023-04-14T06:49:51.317Z,3192.00
2023-04-14T06:50:51.299Z,3548.00
2023-04-14T06:51:51.253Z,3664.00
2023-04-14T06:52:51.208Z,3700.00
2023-04-14T06:53:51.170Z,3676.00
2023-04-14T06:54:51.194Z,3624.00
2023-04-14T06:55:51.109Z,3512.00
2023-04-14T06:56:51.125Z,3376.00
2023-04-14T06:57:51.046Z,3412.00
2023-04-14T06:58:51.099Z,3548.00
2023-04-14T06:59:50.986Z,3820.00
2023-04-14T07:00:51.006Z,3804.00
2023-04-14T07:01:51.081Z,3688.00
2023-04-14T07:02:50.982Z,3676.00
2023-04-14T07:03:50.843Z,3776.00
2023-04-14T07:04:50.813Z,3896.00
2023-04-14T07:05:50.767Z,4036.00
2023-04-14T07:06:51.286Z,4220.00
2023-04-14T07:07:50.704Z,4280.00
2023-04-14T07:08:50.684Z,4300.00
2023-04-14T07:09:50.655Z,4316.00
2023-04-14T07:10:50.609Z,4372.00
2023-04-14T07:11:51.571Z,4476.00
2023-04-14T07:12:50.652Z,4552.00
2023-04-14T07:13:50.509Z,4592.00
2023-04-14T07:14:50.485Z,4612.00
2023-04-14T07:15:50.551Z,4664.00
2023-04-14T07:16:50.422Z,4696.00
2023-04-14T07:17:50.440Z,4748.00
2023-04-14T07:18:50.415Z,4828.00
2023-04-14T07:19:50.291Z,4924.00
2023-04-14T07:20:50.263Z,5068.00
2023-04-14T07:21:50.234Z,5192.00
2023-04-14T07:22:50.205Z,5260.00
2023-04-14T07:23:50.274Z,5268.00
2023-04-14T07:24:50.143Z,5248.00
2023-04-14T07:25:50.103Z,5228.00
2023-04-14T07:26:50.064Z,5288.00
2023-04-14T07:28:00.341Z,5400.00
2023-04-14T07:28:49.996Z,5564.00
2023-04-14T07:29:50.087Z,5728.00
2023-04-14T07:30:49.922Z,5892.00
2023-04-14T07:31:49.995Z,6024.00
2023-04-14T07:32:49.935Z,6140.00
2023-04-14T07:33:49.817Z,6216.00
2023-04-14T07:34:49.791Z,6240.00
2023-04-14T07:36:01.217Z,6228.00
2023-04-14T07:36:49.726Z,6196.00
2023-04-14T07:37:49.765Z,6172.00
2023-04-14T07:38:49.710Z,6132.00
2023-04-14T07:39:49.614Z,6108.00
2023-04-14T07:40:49.610Z,6100.00
2023-04-14T07:41:49.569Z,6080.00
2023-04-14T07:42:49.526Z,6080.00
2023-04-14T07:43:49.545Z,6056.00
2023-04-14T07:44:49.472Z,6056.00
2023-04-14T07:45:49.459Z,6084.00
2023-04-14T07:46:49.482Z,6108.00
2023-04-14T07:47:49.399Z,6156.00
2023-04-14T07:48:49.322Z,6196.00
2023-04-14T07:49:49.355Z,6208.00
2023-04-14T07:50:49.250Z,6188.00
2023-04-14T07:51:49.224Z,6152.00
2023-04-14T07:52:49.187Z,6176.00
2023-04-14T07:53:49.162Z,6216.00
2023-04-14T07:54:49.126Z,6244.00
2023-04-14T07:55:49.132Z,6296.00
2023-04-14T07:56:49.063Z,6372.00
2023-04-14T07:57:49.034Z,6440.00
2023-04-14T07:58:48.984Z,6516.00
2023-04-14T07:59:48.961Z,6620.00
2023-04-14T08:00:48.941Z,6612.00
2023-04-14T08:01:49.033Z,6564.00
2023-04-14T08:02:49.084Z,6544.00
2023-04-14T08:03:48.978Z,6540.00
2023-04-14T08:04:48.803Z,6580.00
2023-04-14T08:05:48.834Z,6676.00
2023-04-14T08:06:48.732Z,6792.00
2023-04-14T08:07:48.750Z,6928.00
2023-04-14T08:08:48.656Z,7092.00
2023-04-14T08:09:48.625Z,7224.00
2023-04-14T08:10:48.582Z,7344.00
2023-04-14T08:11:48.556Z,7480.00
2023-04-14T08:12:48.581Z,7536.00
2023-04-14T08:13:48.542Z,7532.00
2023-04-14T08:14:48.454Z,7512.00
2023-04-14T08:15:48.484Z,7476.00
2023-04-14T08:16:48.404Z,7436.00
2023-04-14T08:17:48.348Z,7396.00
2023-04-14T08:18:49.216Z,7348.00
2023-04-14T08:19:48.346Z,7348.00
2023-04-14T08:20:48.258Z,7352.00
2023-04-14T08:21:48.230Z,7328.00
2023-04-14T08:22:48.200Z,7412.00
2023-04-14T08:23:48.160Z,7540.00
2023-04-14T08:24:48.149Z,7616.00
2023-04-14T08:25:48.373Z,7660.00
2023-04-14T08:26:48.058Z,7752.00
2023-04-14T08:27:48.020Z,7876.00
2023-04-14T08:28:47.992Z,7980.00
2023-04-14T08:29:47.964Z,8116.00
2023-04-14T08:30:48.014Z,8232.00
2023-04-14T08:31:47.930Z,8312.00
2023-04-14T08:32:47.894Z,8356.00
2023-04-14T08:33:47.827Z,8400.00
2023-04-14T08:35:37.015Z,8468.00
2023-04-14T08:35:48.033Z,8564.00
2023-04-14T08:36:47.770Z,8728.00
2023-04-14T08:37:47.694Z,8916.00
2023-04-14T08:38:47.664Z,9084.00
2023-04-14T08:39:47.619Z,9232.00
2023-04-14T08:40:47.588Z,9336.00
2023-04-14T08:41:47.621Z,9388.00
2023-04-14T08:42:47.525Z,9444.00
2023-04-14T08:43:47.510Z,9464.00
2023-04-14T08:44:47.462Z,9464.00
2023-04-14T08:45:47.441Z,9484.00
2023-04-14T08:46:47.401Z,9516.00
2023-04-14T08:47:47.420Z,9576.00
2023-04-14T08:48:47.333Z,9632.00
2023-04-14T08:49:47.328Z,9660.00
2023-04-14T08:50:47.281Z,9636.00
2023-04-14T08:51:47.229Z,9596.00
2023-04-14T08:52:47.204Z,9588.00
2023-04-14T08:53:47.226Z,9620.00
2023-04-14T08:54:47.133Z,9692.00
2023-04-14T08:55:47.098Z,9792.00
2023-04-14T08:56:47.065Z,9904.00
2023-04-14T08:57:47.036Z,10028.00
2023-04-14T08:58:47.001Z,10140.00
2023-04-14T08:59:47.021Z,10236.00
2023-04-14T09:00:46.968Z,10312.00
2023-04-14T09:01:47.002Z,10396.00
2023-04-14T09:02:47.103Z,10492.00
2023-04-14T09:03:46.944Z,10564.00
2023-04-14T09:04:47.048Z,10656.00
2023-04-14T09:05:46.780Z,10816.00
2023-04-14T09:06:46.753Z,10956.00
2023-04-14T09:07:46.729Z,10988.00
2023-04-14T09:08:46.688Z,10984.00
2023-04-14T09:09:46.694Z,11024.00
2023-04-14T09:10:46.622Z,11004.00
2023-04-14T09:11:46.575Z,10896.00
2023-04-14T09:12:46.549Z,10644.00
2023-04-14T09:13:46.513Z,10220.00
2023-04-14T09:14:46.489Z,9928.00
2023-04-14T09:15:46.516Z,9712.00
2023-04-14T09:16:46.517Z,9592.00
2023-04-14T09:17:46.434Z,9520.00
2023-04-14T09:18:47.165Z,9372.00
2023-04-14T09:20:36.484Z,9116.00
2023-04-14T09:20:46.286Z,8732.00
2023-04-14T09:21:52.558Z,8680.00
2023-04-14T09:22:46.257Z,8804.00
2023-04-14T09:23:46.200Z,8964.00
2023-04-14T09:24:46.172Z,9144.00
2023-04-14T09:25:46.129Z,9128.00
2023-04-14T09:26:46.097Z,9052.00
2023-04-14T09:27:46.106Z,8956.00
2023-04-14T09:28:46.024Z,9016.00
2023-04-14T09:29:46.008Z,9248.00
2023-04-14T09:30:45.989Z,9064.00
2023-04-14T09:31:45.916Z,8928.00
2023-04-14T09:32:45.936Z,9416.00
2023-04-14T09:33:45.978Z,9540.00
2023-04-14T09:34:45.826Z,9288.00
2023-04-14T09:35:45.937Z,9064.00
2023-04-14T09:36:45.874Z,8776.00
2023-04-14T09:37:45.727Z,8476.00
2023-04-14T09:38:45.717Z,8068.00
2023-04-14T09:39:45.730Z,7916.00
2023-04-14T09:40:45.633Z,8196.00
2023-04-14T09:41:45.655Z,8168.00
2023-04-14T09:42:45.576Z,8068.00
2023-04-14T09:43:45.526Z,8140.00
2023-04-14T09:44:45.503Z,8316.00
2023-04-14T09:45:45.733Z,8464.00
2023-04-14T09:46:45.463Z,8700.00
2023-04-14T09:47:45.529Z,8932.00
2023-04-14T09:48:45.357Z,8952.00
2023-04-14T09:49:45.324Z,9172.00
2023-04-14T09:50:45.358Z,9292.00
2023-04-14T09:51:45.336Z,9316.00
2023-04-14T09:52:45.270Z,9312.00
2023-04-14T09:53:48.070Z,9108.00
2023-04-14T09:54:45.209Z,9084.00
2023-04-14T09:55:45.213Z,8920.00
2023-04-14T09:56:45.227Z,8684.00
2023-04-14T09:57:45.052Z,8588.00
2023-04-14T09:58:45.045Z,8696.00
2023-04-14T09:59:44.997Z,8656.00
2023-04-14T10:00:44.952Z,8540.00
2023-04-14T10:01:44.995Z,8480.00
2023-04-14T10:02:45.017Z,8632.00
2023-04-14T10:03:44.924Z,8712.00
2023-04-14T10:04:44.885Z,8912.00
2023-04-14T10:05:44.825Z,9072.00
2023-04-14T10:06:44.758Z,9168.00
2023-04-14T10:07:44.726Z,9248.00
2023-04-14T10:08:44.821Z,9168.00
2023-04-14T10:09:44.658Z,8876.00
2023-04-14T10:10:44.652Z,8588.00
2023-04-14T10:11:44.611Z,8276.00
2023-04-14T10:12:44.578Z,8160.00
2023-04-14T10:13:44.530Z,8104.00
2023-04-14T10:14:44.608Z,8152.00
2023-04-14T10:15:44.504Z,8260.00
2023-04-14T10:16:44.436Z,8384.00
2023-04-14T10:17:44.396Z,8504.00
2023-04-14T10:18:44.357Z,8756.00
2023-04-14T10:19:44.323Z,8904.00
2023-04-14T10:20:44.366Z,8928.00
2023-04-14T10:21:44.323Z,8872.00
2023-04-14T10:22:44.269Z,8512.00
2023-04-14T10:23:44.228Z,8248.00
2023-04-14T10:24:44.161Z,8016.00
2023-04-14T10:25:44.128Z,7872.00
2023-04-14T10:26:44.174Z,7656.00
2023-04-14T10:27:44.069Z,7512.00
2023-04-14T10:28:44.022Z,7396.00
2023-04-14T10:29:44.020Z,7268.00
2023-04-14T10:30:43.972Z,7264.00
2023-04-14T10:31:43.983Z,7384.00
2023-04-14T10:32:43.952Z,7580.00
2023-04-14T10:33:43.855Z,7788.00
2023-04-14T10:34:43.829Z,7420.00
2023-04-14T10:35:43.789Z,7916.00
2023-04-14T10:36:43.778Z,7748.00
2023-04-14T10:37:43.779Z,7680.00
2023-04-14T10:38:43.774Z,7520.00
2023-04-14T10:39:43.714Z,7252.00
2023-04-14T10:40:43.695Z,7572.00
2023-04-14T10:41:43.596Z,7676.00
2023-04-14T10:42:43.636Z,7892.00
2023-04-14T10:43:43.535Z,8224.00
2023-04-14T10:44:43.505Z,8464.00
2023-04-14T10:45:43.473Z,8836.00
2023-04-14T10:46:43.462Z,9064.00
2023-04-14T10:47:43.386Z,9076.00
2023-04-14T10:48:43.475Z,9068.00
2023-04-14T10:49:43.333Z,9204.00
2023-04-14T10:50:43.305Z,9464.00
2023-04-14T10:51:43.256Z,9876.00
2023-04-14T10:52:43.233Z,10120.00
2023-04-14T10:53:43.189Z,10164.00
2023-04-14T10:54:43.212Z,10196.00
2023-04-14T10:55:51.687Z,10356.00
2023-04-14T10:56:43.077Z,10520.00
2023-04-14T10:57:43.063Z,10636.00
2023-04-14T10:58:43.024Z,10676.00
2023-04-14T10:59:42.971Z,10732.00
2023-04-14T11:00:43.040Z,10928.00
2023-04-14T11:01:42.915Z,10836.00
2023-04-14T11:02:43.707Z,10852.00
2023-04-14T11:03:42.950Z,10728.00
2023-04-14T11:04:42.829Z,10704.00
2023-04-14T11:05:42.857Z,10944.00
2023-04-14T11:06:42.829Z,11224.00
2023-04-14T11:07:42.710Z,11428.00
2023-04-14T11:08:42.759Z,11480.00
2023-04-14T11:09:42.649Z,11548.00
2023-04-14T11:10:42.627Z,11544.00
2023-04-14T11:11:42.589Z,11612.00
2023-04-14T11:12:42.546Z,11780.00
2023-04-14T11:13:42.595Z,11976.00
2023-04-14T11:14:44.623Z,12216.00
2023-04-14T11:15:42.441Z,12464.00
2023-04-14T11:16:47.618Z,12700.00
2023-04-14T11:17:42.467Z,12816.00
2023-04-14T11:18:45.269Z,12676.00
2023-04-14T11:19:42.301Z,12412.00
2023-04-14T11:20:42.278Z,12092.00
2023-04-14T11:21:42.256Z,11736.00
2023-04-14T11:22:42.208Z,11552.00
2023-04-14T11:23:42.231Z,11288.00
2023-04-14T11:24:42.151Z,11232.00
2023-04-14T11:25:42.092Z,10820.00
2023-04-14T11:26:42.099Z,11028.00
2023-04-14T11:27:42.125Z,10928.00
2023-04-14T11:28:42.069Z,10796.00
2023-04-14T11:29:42.049Z,10576.00
2023-04-14T11:30:42.640Z,10728.00
2023-04-14T11:31:41.944Z,10352.00
2023-04-14T11:32:41.900Z,9996.00
2023-04-14T11:33:42.220Z,9704.00
2023-04-14T11:34:41.805Z,9336.00
2023-04-14T11:35:41.773Z,8900.00
2023-04-14T11:36:41.755Z,8848.00
2023-04-14T11:37:41.718Z,8548.00
2023-04-14T11:38:41.748Z,8468.00
2023-04-14T11:39:41.625Z,8060.00
2023-04-14T11:40:41.616Z,7464.00
2023-04-14T11:41:41.577Z,7488.00
2023-04-14T11:42:41.534Z,7516.00
2023-04-14T11:43:41.514Z,7388.00
2023-04-14T11:44:41.560Z,6856.00
2023-04-14T11:45:41.519Z,7540.00
2023-04-14T11:46:41.560Z,7576.00
2023-04-14T11:47:41.406Z,7792.00
2023-04-14T11:48:41.335Z,7900.00
2023-04-14T11:49:41.297Z,7984.00
2023-04-14T11:50:41.331Z,7640.00
2023-04-14T11:51:41.248Z,8076.00
2023-04-14T11:52:41.207Z,8132.00
2023-04-14T11:53:41.191Z,7828.00
2023-04-14T11:54:41.164Z,8240.00
2023-04-14T11:55:41.105Z,7616.00
2023-04-14T11:56:41.116Z,7860.00
2023-04-14T11:57:41.033Z,8156.00
2023-04-14T11:58:40.991Z,7664.00
2023-04-14T11:59:41.005Z,6784.00
2023-04-14T12:00:40.940Z,5860.00
2023-04-14T12:01:40.910Z,6040.00
2023-04-14T12:02:41.260Z,6236.00
2023-04-14T12:03:41.085Z,6876.00
2023-04-14T12:04:41.864Z,6048.00
2023-04-14T12:05:41.116Z,5532.00
2023-04-14T12:06:40.742Z,6052.00
2023-04-14T12:07:40.780Z,5988.00
2023-04-14T12:08:40.737Z,5208.00
2023-04-14T12:09:40.711Z,5264.00
2023-04-14T12:10:40.619Z,5180.00
2023-04-14T12:11:40.552Z,6132.00
2023-04-14T12:12:40.520Z,6544.00
2023-04-14T12:13:40.494Z,6936.00
2023-04-14T12:14:40.611Z,6532.00
2023-04-14T12:15:40.444Z,6864.00
2023-04-14T12:16:40.557Z,6704.00
2023-04-14T12:17:40.388Z,6964.00
2023-04-14T12:18:40.323Z,6888.00
2023-04-14T12:19:40.308Z,7088.00
2023-04-14T12:20:40.320Z,7716.00
2023-04-14T12:21:40.224Z,7052.00
2023-04-14T12:22:40.200Z,6744.00
2023-04-14T12:23:40.151Z,6136.00
2023-04-14T12:24:40.114Z,6352.00
2023-04-14T12:25:40.080Z,7272.00
2023-04-14T12:26:40.106Z,6456.00
2023-04-14T12:27:40.011Z,6304.00